Time,TemperatureF,DewpointF,PressureIn,WindDirection,WindDirectionDegrees,WindSpeedMPH,WindSpeedGustMPH,Humidity,HourlyPrecipIn,Conditions,Clouds,dailyrainin,SoftwareType,DateUTC
2013-07-04 00:00:00,100.6,83.1,30.09,South,173,4.0,4.5,58,0.00,,---,0.00,VWS V14.01,2013-07-04 04:00:00,
2013-07-04 00:05:00,100.6,83.1,30.09,South,174,4.5,5.4,58,0.00,,---,0.00,VWS V14.01,2013-07-04 04:05:00,
2013-07-04 00:10:00,100.6,83.1,30.09,South,174,5.8,6.3,58,0.00,,---,0.00,VWS V14.01,2013-07-04 04:10:00,
2013-07-04 00:15:00,100.6,83.1,30.09,SSW,200,8.5,12.5,58,0.00,,---,0.00,VWS V14.01,2013-07-04 04:15:00,
2013-07-04 00:20:00,100.6,83.1,30.09,SSW,194,7.2,8.9,58,0.00,,---,0.00,VWS V14.01,2013-07-04 04:20:00,
2013-07-04 00:25:00,100.6,83.1,30.09,South,176,2.2,9.4,58,0.00,,---,0.00,VWS V14.01,2013-07-04 04:25:00,
2013-07-04 00:30:00,100.6,83.1,30.09,South,177,0.0,3.6,58,0.00,,---,0.00,VWS V14.01,2013-07-04 04:30:00,
2013-07-04 00:35:00,100.6,83.1,30.09,South,177,0.0,3.1,58,0.00,,---,0.00,VWS V14.01,2013-07-04 04:35:00,
2013-07-04 00:40:00,100.6,83.1,30.09,South,177,0.0,4.0,58,0.00,,---,0.00,VWS V14.01,2013-07-04 04:40:00,
2013-07-04 00:45:00,100.6,83.1,30.09,South,177,0.0,0.0,58,0.00,,---,0.00,VWS V14.01,2013-07-04 04:45:00,
2013-07-04 00:50:00,100.6,83.1,30.09,South,173,2.7,4.5,58,0.00,,---,0.00,VWS V14.01,2013-07-04 04:50:00,
2013-07-04 00:55:00,100.6,83.1,30.09,South,177,4.9,5.4,58,0.00,,---,0.00,VWS V14.01,2013-07-04 04:55:00,
2013-07-04 01:00:00,100.6,83.1,30.09,South,178,3.6,5.4,58,0.00,,---,0.00,VWS V14.01,2013-07-04 05:00:00,
2013-07-04 01:05:00,100.6,83.1,30.09,South,178,4.5,5.4,58,0.00,,---,0.00,VWS V14.01,2013-07-04 05:05:00,
2013-07-04 01:10:00,100.6,83.1,30.09,South,174,5.8,6.3,58,0.00,,---,0.00,VWS V14.01,2013-07-04 05:10:00,
2013-07-04 01:15:00,100.6,83.1,30.12,South,178,4.5,5.8,58,0.00,,---,0.00,VWS V14.01,2013-07-04 05:15:00,
2013-07-04 01:20:00,100.6,83.1,30.12,South,178,4.0,5.8,58,0.00,,---,0.00,VWS V14.01,2013-07-04 05:20:00,
2013-07-04 01:25:00,100.6,83.1,30.09,South,176,2.2,9.4,58,0.00,,---,0.00,VWS V14.01,2013-07-04 05:25:00,
2013-07-04 01:30:00,100.6,83.1,30.12,SSW,212,6.7,8.5,58,0.00,,---,0.00,VWS V14.01,2013-07-04 05:30:00,
2013-07-04 01:35:00,100.6,83.1,30.12,SW,216,7.2,10.3,58,0.00,,---,0.00,VWS V14.01,2013-07-04 05:35:00,
2013-07-04 01:40:00,100.6,83.1,30.12,SW,214,5.8,10.7,58,0.00,,---,0.00,VWS V14.01,2013-07-04 05:40:00,
2013-07-04 01:45:00,100.6,83.1,30.09,South,177,0.0,0.0,58,0.00,,---,0.00,VWS V14.01,2013-07-04 05:45:00,
2013-07-04 01:50:00,100.6,83.1,30.12,South,191,0.0,8.5,58,0.00,,---,0.00,VWS V14.01,2013-07-04 05:50:00,
2013-07-04 01:55:00,100.6,83.1,30.12,South,191,0.0,0.4,58,0.00,,---,0.00,VWS V14.01,2013-07-04 05:55:00,
2013-07-04 02:00:00,100.6,83.1,30.09,South,178,3.6,5.4,58,0.00,,---,0.00,VWS V14.01,2013-07-04 06:00:00,
2013-07-04 02:05:00,100.6,83.1,30.09,South,190,0.0,1.8,58,0.00,,---,0.00,VWS V14.01,2013-07-04 06:05:00,
2013-07-04 02:10:00,100.6,83.1,30.09,South,190,0.0,0.0,58,0.00,,---,0.00,VWS V14.01,2013-07-04 06:10:00,
2013-07-04 02:15:00,100.6,83.1,30.12,South,178,4.5,5.8,58,0.00,,---,0.00,VWS V14.01,2013-07-04 06:15:00,
2013-07-04 02:20:00,100.6,83.1,30.12,South,178,4.0,5.8,58,0.00,,---,0.00,VWS V14.01,2013-07-04 06:20:00,
2013-07-04 02:25:00,100.6,83.1,30.09,South,187,1.8,3.1,58,0.00,,---,0.00,VWS V14.01,2013-07-04 06:25:00,
2013-07-04 02:30:00,100.6,83.1,30.12,SSW,212,6.7,8.5,58,0.00,,---,0.00,VWS V14.01,2013-07-04 06:30:00,
2013-07-04 02:35:00,100.6,83.1,30.09,South,190,0.0,0.4,58,0.00,,---,0.00,VWS V14.01,2013-07-04 06:35:00,
2013-07-04 02:40:00,100.6,83.1,30.09,South,190,0.0,4.5,58,0.00,,---,0.00,VWS V14.01,2013-07-04 06:40:00,
2013-07-04 02:45:00,100.6,83.1,30.12,SSW,202,1.3,7.6,58,0.00,,---,0.00,VWS V14.01,2013-07-04 06:45:00,
2013-07-04 02:50:00,100.6,83.1,30.09,South,190,0.0,0.0,58,0.00,,---,0.00,VWS V14.01,2013-07-04 06:50:00,
2013-07-04 02:55:00,100.6,83.1,30.09,South,190,0.0,0.0,58,0.00,,---,0.00,VWS V14.01,2013-07-04 06:55:00,
2013-07-04 03:00:00,100.6,83.1,30.09,South,190,4.0,4.9,58,0.00,,---,0.00,VWS V14.01,2013-07-04 07:00:00,
2013-07-04 03:05:00,100.6,83.1,30.09,South,190,4.9,7.2,58,0.00,,---,0.00,VWS V14.01,2013-07-04 07:05:00,
2013-07-04 03:10:00,100.6,83.1,30.09,South,190,3.6,4.9,58,0.00,,---,0.00,VWS V14.01,2013-07-04 07:10:00,
2013-07-04 03:15:00,100.6,83.1,30.09,South,191,2.7,4.0,58,0.00,,---,0.00,VWS V14.01,2013-07-04 07:15:00,
2013-07-04 03:20:00,100.6,83.1,30.09,South,191,0.0,0.0,58,0.00,,---,0.00,VWS V14.01,2013-07-04 07:20:00,
2013-07-04 03:25:00,100.6,83.1,30.09,South,188,1.8,4.5,58,0.00,,---,0.00,VWS V14.01,2013-07-04 07:25:00,
2013-07-04 03:30:00,100.6,83.1,30.09,South,185,3.1,3.1,58,0.00,,---,0.00,VWS V14.01,2013-07-04 07:30:00,
2013-07-04 03:35:00,100.6,83.1,30.09,South,190,0.0,0.4,58,0.00,,---,0.00,VWS V14.01,2013-07-04 07:35:00,
2013-07-04 03:40:00,100.6,83.1,30.09,South,181,4.9,4.9,58,0.00,,---,0.00,VWS V14.01,2013-07-04 07:40:00,
2013-07-04 03:45:00,100.6,83.1,30.09,South,180,0.9,4.9,58,0.00,,---,0.00,VWS V14.01,2013-07-04 07:45:00,
2013-07-04 03:50:00,100.6,83.1,30.09,South,190,0.0,0.0,58,0.00,,---,0.00,VWS V14.01,2013-07-04 07:50:00,
2013-07-04 03:55:00,100.6,83.1,30.09,SSE,164,2.7,7.2,58,0.00,,---,0.00,VWS V14.01,2013-07-04 07:55:00,
2013-07-04 04:00:00,100.6,83.1,30.09,SE,140,0.0,8.1,58,0.00,,---,0.00,VWS V14.01,2013-07-04 08:00:00,
2013-07-04 04:05:00,100.6,83.1,30.09,SE,145,1.8,5.8,58,0.00,,---,0.00,VWS V14.01,2013-07-04 08:05:00,
2013-07-04 04:10:00,100.6,83.1,30.09,South,190,3.6,4.9,58,0.00,,---,0.00,VWS V14.01,2013-07-04 08:10:00,
2013-07-04 04:15:00,100.6,83.1,30.09,SSE,149,2.7,3.1,58,0.00,,---,0.00,VWS V14.01,2013-07-04 08:15:00,
2013-07-04 04:20:00,100.6,83.1,30.09,South,190,3.1,3.1,58,0.00,,---,0.00,VWS V14.01,2013-07-04 08:20:00,
2013-07-04 04:25:00,100.6,83.1,30.09,SSE,153,3.1,4.5,58,0.00,,---,0.00,VWS V14.01,2013-07-04 08:25:00,
2013-07-04 04:30:00,100.6,83.1,30.09,SSE,161,3.1,4.9,58,0.00,,---,0.00,VWS V14.01,2013-07-04 08:30:00,
2013-07-04 04:35:00,100.6,83.1,30.09,SSE,161,1.3,4.5,58,0.00,,---,0.00,VWS V14.01,2013-07-04 08:35:00,
2013-07-04 04:40:00,100.6,83.1,30.09,SSE,160,3.1,3.6,58,0.00,,---,0.00,VWS V14.01,2013-07-04 08:40:00,
2013-07-04 04:45:00,100.6,83.1,30.09,SSE,163,2.7,3.6,58,0.00,,---,0.00,VWS V14.01,2013-07-04 08:45:00,
2013-07-04 04:50:00,100.6,83.1,30.09,South,178,0.0,4.5,58,0.00,,---,0.00,VWS V14.01,2013-07-04 08:50:00,
2013-07-04 04:55:00,100.6,83.1,30.09,SSE,161,1.8,3.6,58,0.00,,---,0.00,VWS V14.01,2013-07-04 08:55:00,
2013-07-04 05:00:00,100.6,83.1,30.09,SSE,161,0.0,3.1,58,0.00,,---,0.00,VWS V14.01,2013-07-04 09:00:00,
2013-07-04 05:05:00,100.6,83.1,30.09,SE,145,1.8,5.8,58,0.00,,---,0.00,VWS V14.01,2013-07-04 09:05:00,
2013-07-04 05:10:00,100.6,83.1,30.09,SSE,161,0.0,0.0,58,0.00,,---,0.00,VWS V14.01,2013-07-04 09:10:00,
2013-07-04 05:15:00,100.6,83.1,30.09,SSE,161,0.0,1.8,58,0.00,,---,0.00,VWS V14.01,2013-07-04 09:15:00,
2013-07-04 05:20:00,100.6,83.1,30.09,SSE,149,0.0,3.1,58,0.00,,---,0.00,VWS V14.01,2013-07-04 09:20:00,
2013-07-04 05:25:00,100.6,83.1,30.09,SSE,159,0.0,0.0,58,0.00,,---,0.00,VWS V14.01,2013-07-04 09:25:00,
2013-07-04 05:30:00,100.6,83.1,30.09,SSE,161,0.0,0.0,58,0.00,,---,0.00,VWS V14.01,2013-07-04 09:30:00,
2013-07-04 05:35:00,100.6,83.1,30.09,SSE,161,1.3,4.5,58,0.00,,---,0.00,VWS V14.01,2013-07-04 09:35:00,
2013-07-04 05:40:00,100.6,83.1,30.09,SSE,163,3.1,4.0,58,0.00,,---,0.00,VWS V14.01,2013-07-04 09:40:00,
2013-07-04 05:45:00,100.6,83.1,30.09,SSW,201,5.4,5.8,58,0.00,,---,0.00,VWS V14.01,2013-07-04 09:45:00,
2013-07-04 05:50:00,100.6,83.1,30.09,SSE,161,3.1,3.6,58,0.00,,---,0.00,VWS V14.01,2013-07-04 09:50:00,
2013-07-04 05:55:00,81.9,81.9,30.09,South,176,2.7,9.8,100,0.00,,---,0.00,VWS V14.01,2013-07-04 09:55:00,
2013-07-04 06:00:00,81.9,81.9,30.12,SSE,157,2.2,5.4,100,0.00,,---,0.00,VWS V14.01,2013-07-04 10:00:00,
2013-07-04 06:05:00,100.6,83.1,30.09,SSE,161,0.0,0.0,58,0.00,,---,0.00,VWS V14.01,2013-07-04 10:05:00,
2013-07-04 06:10:00,81.9,81.9,30.12,South,171,3.6,3.6,100,0.00,,---,0.00,VWS V14.01,2013-07-04 10:10:00,
2013-07-04 06:15:00,81.9,81.9,30.12,South,171,2.7,3.6,100,0.00,,---,0.00,VWS V14.01,2013-07-04 10:15:00,
2013-07-04 06:20:00,100.6,83.1,30.09,SSE,161,0.0,0.0,58,0.00,,---,0.00,VWS V14.01,2013-07-04 10:20:00,
2013-07-04 06:25:00,81.9,81.9,30.12,South,174,2.7,5.4,100,0.00,,---,0.00,VWS V14.01,2013-07-04 10:25:00,
2013-07-04 06:30:00,81.9,81.9,30.12,SSE,167,3.6,5.4,100,0.00,,---,0.00,VWS V14.01,2013-07-04 10:30:00,
2013-07-04 06:35:00,100.6,83.1,30.09,SSE,161,0.0,0.4,58,0.00,,---,0.00,VWS V14.01,2013-07-04 10:35:00,
2013-07-04 06:40:00,81.9,81.9,30.12,South,187,3.6,9.4,100,0.00,,---,0.00,VWS V14.01,2013-07-04 10:40:00,
2013-07-04 06:45:00,81.9,81.9,30.12,South,169,5.8,6.3,100,0.00,,---,0.00,VWS V14.01,2013-07-04 10:45:00,
2013-07-04 06:50:00,81.9,81.9,30.09,SSW,208,9.8,10.3,100,0.00,,---,0.00,VWS V14.01,2013-07-04 10:50:00,
2013-07-04 06:55:00,81.9,81.9,30.12,South,191,2.2,6.7,100,0.00,,---,0.00,VWS V14.01,2013-07-04 10:55:00,
2013-07-04 07:00:00,81.9,81.9,30.12,SSW,198,9.4,10.7,100,0.00,,---,0.00,VWS V14.01,2013-07-04 11:00:00,
2013-07-04 07:05:00,81.9,81.9,30.12,South,171,0.9,4.0,100,0.00,,---,0.00,VWS V14.01,2013-07-04 11:05:00,
2013-07-04 07:10:00,81.9,81.9,30.12,SSE,153,5.4,6.7,100,0.00,,---,0.00,VWS V14.01,2013-07-04 11:10:00,
2013-07-04 07:15:00,81.9,81.9,30.12,SSE,166,2.7,6.3,100,0.00,,---,0.00,VWS V14.01,2013-07-04 11:15:00,
2013-07-04 07:20:00,81.9,81.9,30.12,South,171,1.3,3.6,100,0.00,,---,0.00,VWS V14.01,2013-07-04 11:20:00,
2013-07-04 07:25:00,81.9,81.9,30.12,SSW,201,8.9,11.2,100,0.00,,---,0.00,VWS V14.01,2013-07-04 11:25:00,
2013-07-04 07:30:00,81.9,81.9,30.12,South,183,5.8,10.7,100,0.00,,---,0.00,VWS V14.01,2013-07-04 11:30:00,
2013-07-04 07:35:00,81.9,81.9,30.12,South,169,2.2,5.8,100,0.00,,---,0.00,VWS V14.01,2013-07-04 11:35:00,
2013-07-04 07:40:00,81.9,81.9,30.12,SSW,211,8.5,13.4,100,0.00,,---,0.00,VWS V14.01,2013-07-04 11:40:00,
2013-07-04 07:45:00,81.9,81.9,30.12,SSW,208,14.8,15.7,100,0.00,,---,0.00,VWS V14.01,2013-07-04 11:45:00,
2013-07-04 07:50:00,81.9,81.9,30.12,South,177,3.1,5.8,100,0.00,,---,0.00,VWS V14.01,2013-07-04 11:50:00,
2013-07-04 07:55:00,81.9,81.9,30.12,SSW,195,13.9,14.8,100,0.00,,---,0.00,VWS V14.01,2013-07-04 11:55:00,
2013-07-04 08:00:00,81.9,81.9,30.12,SW,215,10.3,17.0,100,0.00,,---,0.00,VWS V14.01,2013-07-04 12:00:00,
2013-07-04 08:05:00,81.9,81.9,30.12,South,176,1.3,13.0,100,0.00,,---,0.00,VWS V14.01,2013-07-04 12:05:00,
2013-07-04 08:10:00,81.9,81.9,30.12,SSW,209,12.5,17.4,100,0.00,,---,0.00,VWS V14.01,2013-07-04 12:10:00,
2013-07-04 08:15:00,81.9,81.9,30.12,SSE,166,2.7,6.3,100,0.00,,---,0.00,VWS V14.01,2013-07-04 12:15:00,
2013-07-04 08:20:00,87.8,80.1,30.12,SSW,194,15.2,15.2,78,0.00,,---,0.00,VWS V14.01,2013-07-04 12:20:00,
2013-07-04 08:25:00,87.8,80.1,30.12,SSW,205,13.0,18.3,78,0.00,,---,0.00,VWS V14.01,2013-07-04 12:25:00,
2013-07-04 08:30:00,87.8,80.1,30.12,SSW,211,11.2,19.2,78,0.00,,---,0.00,VWS V14.01,2013-07-04 12:30:00,
2013-07-04 08:35:00,88.9,79.5,30.12,SSW,197,14.3,17.0,74,0.00,,---,0.00,VWS V14.01,2013-07-04 12:35:00,
2013-07-04 08:40:00,88.2,80.0,30.12,SSW,205,13.0,17.4,77,0.00,,---,0.00,VWS V14.01,2013-07-04 12:40:00,
2013-07-04 08:45:00,88.9,79.9,30.12,SSW,201,11.2,18.3,75,0.00,,---,0.00,VWS V14.01,2013-07-04 12:45:00,
2013-07-04 08:50:00,81.9,81.9,30.12,SSW,211,12.1,14.8,100,0.00,,---,0.00,VWS V14.01,2013-07-04 12:50:00,
2013-07-04 08:55:00,90.0,79.7,30.12,SSW,212,13.0,21.5,72,0.00,,---,0.00,VWS V14.01,2013-07-04 12:55:00,
2013-07-04 09:00:00,89.4,79.2,30.12,SW,222,13.9,20.6,72,0.00,,---,0.00,VWS V14.01,2013-07-04 13:00:00,
2013-07-04 09:05:00,81.9,81.9,30.12,South,187,9.8,20.1,100,0.00,,---,0.00,VWS V14.01,2013-07-04 13:05:00,
2013-07-04 09:10:00,89.2,79.9,30.12,SSW,209,16.1,16.1,74,0.00,,---,0.00,VWS V14.01,2013-07-04 13:10:00,
2013-07-04 09:15:00,89.6,79.4,30.12,South,187,11.2,17.4,72,0.00,,---,0.00,VWS V14.01,2013-07-04 13:15:00,
2013-07-04 09:20:00,87.8,80.1,30.12,SSW,194,15.2,15.2,78,0.00,,---,0.00,VWS V14.01,2013-07-04 13:20:00,
2013-07-04 09:25:00,89.6,78.9,30.12,SSW,202,14.3,18.8,71,0.00,,---,0.00,VWS V14.01,2013-07-04 13:25:00,
2013-07-04 09:30:00,89.8,79.1,30.12,SSW,212,12.5,20.1,71,0.00,,---,0.00,VWS V14.01,2013-07-04 13:30:00,
2013-07-04 09:35:00,88.9,79.5,30.12,SSW,197,14.3,17.0,74,0.00,,---,0.00,VWS V14.01,2013-07-04 13:35:00,
2013-07-04 09:40:00,89.8,79.1,30.12,SSW,197,17.9,17.9,71,0.00,,---,0.00,VWS V14.01,2013-07-04 13:40:00,
2013-07-04 09:45:00,89.6,79.4,30.12,SSW,208,17.4,17.9,72,0.00,,---,0.00,VWS V14.01,2013-07-04 13:45:00,
2013-07-04 09:50:00,90.3,80.9,30.12,SSW,202,13.0,16.1,74,0.00,,---,0.00,VWS V14.01,2013-07-04 13:50:00,
2013-07-04 09:55:00,89.1,78.9,30.12,SSW,209,18.3,18.3,72,0.00,,---,0.00,VWS V14.01,2013-07-04 13:55:00,
2013-07-04 10:00:00,88.9,79.5,30.12,SW,215,8.9,18.3,74,0.00,,---,0.00,VWS V14.01,2013-07-04 14:00:00,
2013-07-04 10:05:00,89.1,78.9,30.12,SW,219,16.1,18.3,72,0.00,,---,0.00,VWS V14.01,2013-07-04 14:05:00,
2013-07-04 10:10:00,89.2,79.0,30.12,SSW,205,12.5,17.0,72,0.00,,---,0.00,VWS V14.01,2013-07-04 14:10:00,
2013-07-04 10:15:00,89.2,79.0,30.12,SW,215,12.5,17.0,72,0.00,,---,0.00,VWS V14.01,2013-07-04 14:15:00,
2013-07-04 10:20:00,89.6,79.8,30.12,SSW,205,13.4,17.4,73,0.00,,---,0.00,VWS V14.01,2013-07-04 14:20:00,
2013-07-04 10:25:00,89.4,78.8,30.12,SSW,195,13.4,13.9,71,0.00,,---,0.00,VWS V14.01,2013-07-04 14:25:00,
2013-07-04 10:30:00,89.4,78.8,30.12,SW,214,13.4,17.4,71,0.00,,---,0.00,VWS V14.01,2013-07-04 14:30:00,
2013-07-04 10:35:00,89.4,78.8,30.12,SSW,212,8.1,13.4,71,0.00,,---,0.00,VWS V14.01,2013-07-04 14:35:00,
2013-07-04 10:40:00,89.8,79.1,30.12,SSW,197,17.9,17.9,71,0.00,,---,0.00,VWS V14.01,2013-07-04 14:40:00,
2013-07-04 10:45:00,89.4,78.8,30.12,SW,216,16.6,17.0,71,0.00,,---,0.00,VWS V14.01,2013-07-04 14:45:00,
2013-07-04 10:50:00,89.4,78.8,30.12,SW,221,8.9,17.0,71,0.00,,---,0.00,VWS V14.01,2013-07-04 14:50:00,
2013-07-04 10:55:00,89.1,78.9,30.12,SSW,209,18.3,18.3,72,0.00,,---,0.00,VWS V14.01,2013-07-04 14:55:00,
2013-07-04 11:00:00,89.4,78.8,30.12,SSW,212,13.4,14.3,71,0.00,,---,0.00,VWS V14.01,2013-07-04 15:00:00,
2013-07-04 11:05:00,89.4,78.8,30.12,WSW,238,11.2,15.2,71,0.00,,---,0.00,VWS V14.01,2013-07-04 15:05:00,
2013-07-04 11:10:00,89.2,79.0,30.12,SSW,205,12.5,17.0,72,0.00,,---,0.00,VWS V14.01,2013-07-04 15:10:00,
2013-07-04 11:15:00,89.4,78.8,30.12,SW,225,5.8,12.5,71,0.00,,---,0.00,VWS V14.01,2013-07-04 15:15:00,
2013-07-04 11:20:00,89.4,78.8,30.12,SSW,207,11.6,11.6,71,0.00,,---,0.00,VWS V14.01,2013-07-04 15:20:00,
2013-07-04 11:25:00,89.4,78.8,30.12,SSW,195,13.4,13.9,71,0.00,,---,0.00,VWS V14.01,2013-07-04 15:25:00,
2013-07-04 11:30:00,89.4,78.8,30.12,SSW,209,8.5,11.2,71,0.00,,---,0.00,VWS V14.01,2013-07-04 15:30:00,
2013-07-04 11:35:00,89.4,78.8,30.12,SW,219,5.8,13.0,71,0.00,,---,0.00,VWS V14.01,2013-07-04 15:35:00,
2013-07-04 11:40:00,89.4,78.8,30.12,SW,215,8.9,15.2,71,0.00,,---,0.00,VWS V14.01,2013-07-04 15:40:00,
2013-07-04 11:45:00,89.4,78.8,30.12,SW,215,6.7,10.7,71,0.00,,---,0.00,VWS V14.01,2013-07-04 15:45:00,
2013-07-04 11:50:00,89.4,78.8,30.12,SW,229,6.3,14.3,71,0.00,,---,0.00,VWS V14.01,2013-07-04 15:50:00,
2013-07-04 11:55:00,89.4,78.8,30.12,West,261,4.0,11.6,71,0.00,,---,0.00,VWS V14.01,2013-07-04 15:55:00,
2013-07-04 12:00:00,89.4,78.8,30.09,SSW,198,14.3,14.3,71,0.00,,---,0.00,VWS V14.01,2013-07-04 16:00:00,
2013-07-04 12:05:00,89.4,78.8,30.09,SW,214,9.4,17.0,71,0.00,,---,0.00,VWS V14.01,2013-07-04 16:05:00,
2013-07-04 12:10:00,89.4,78.8,30.12,SSW,200,10.7,14.8,71,0.00,,---,0.00,VWS V14.01,2013-07-04 16:10:00,
2013-07-04 12:15:00,89.4,78.8,30.12,SW,225,5.8,12.5,71,0.00,,---,0.00,VWS V14.01,2013-07-04 16:15:00,
2013-07-04 12:20:00,89.4,78.8,30.12,SSW,198,6.7,12.5,71,0.00,,---,0.00,VWS V14.01,2013-07-04 16:20:00,
2013-07-04 12:25:00,89.4,78.8,30.12,SW,232,9.8,16.1,71,0.00,,---,0.00,VWS V14.01,2013-07-04 16:25:00,
2013-07-04 12:30:00,89.4,78.8,30.12,SW,216,3.6,6.3,71,0.00,,---,0.00,VWS V14.01,2013-07-04 16:30:00,
2013-07-04 12:35:00,89.2,80.7,30.12,SW,219,4.5,6.3,76,0.00,,---,0.00,VWS V14.01,2013-07-04 16:35:00,
2013-07-04 12:40:00,89.4,78.8,30.12,SW,233,7.2,13.9,71,0.00,,---,0.00,VWS V14.01,2013-07-04 16:40:00,
2013-07-04 12:45:00,89.2,80.7,30.09,WSW,246,6.7,9.4,76,0.00,,---,0.00,VWS V14.01,2013-07-04 16:45:00,
2013-07-04 12:50:00,89.2,80.7,30.09,WSW,252,6.3,9.4,76,0.00,,---,0.00,VWS V14.01,2013-07-04 16:50:00,
2013-07-04 12:55:00,89.4,78.8,30.12,South,173,2.2,8.5,71,0.00,,---,0.00,VWS V14.01,2013-07-04 16:55:00,
2013-07-04 13:00:00,89.2,80.7,30.09,SW,221,6.3,9.8,76,0.00,,---,0.00,VWS V14.01,2013-07-04 17:00:00,
2013-07-04 13:05:00,89.2,80.7,30.09,SW,221,5.4,8.9,76,0.00,,---,0.00,VWS V14.01,2013-07-04 17:05:00,
2013-07-04 13:10:00,89.2,80.7,30.09,SSW,202,4.0,11.2,76,0.00,,---,0.00,VWS V14.01,2013-07-04 17:10:00,
2013-07-04 13:15:00,89.4,78.8,30.12,SSW,212,9.4,13.0,71,0.00,,---,0.00,VWS V14.01,2013-07-04 17:15:00,
2013-07-04 13:20:00,89.2,80.7,30.09,SSW,204,10.3,14.3,76,0.00,,---,0.00,VWS V14.01,2013-07-04 17:20:00,
2013-07-04 13:25:00,89.2,80.7,30.09,SW,219,10.7,15.2,76,0.00,,---,0.00,VWS V14.01,2013-07-04 17:25:00,
2013-07-04 13:30:00,89.2,80.7,30.09,WSW,240,8.9,13.0,76,0.00,,---,0.00,VWS V14.01,2013-07-04 17:30:00,
2013-07-04 13:35:00,89.2,80.7,30.12,SW,219,4.5,6.3,76,0.00,,---,0.00,VWS V14.01,2013-07-04 17:35:00,
2013-07-04 13:40:00,89.2,80.7,30.09,South,187,8.9,15.7,76,0.00,,---,0.00,VWS V14.01,2013-07-04 17:40:00,
2013-07-04 13:45:00,89.2,80.7,30.09,WSW,246,6.7,9.4,76,0.00,,---,0.00,VWS V14.01,2013-07-04 17:45:00,
2013-07-04 13:50:00,89.2,80.7,30.09,SSW,202,7.6,12.5,76,0.00,,---,0.00,VWS V14.01,2013-07-04 17:50:00,
2013-07-04 13:55:00,89.2,80.7,30.09,SW,223,6.7,11.2,76,0.00,,---,0.00,VWS V14.01,2013-07-04 17:55:00,
2013-07-04 14:00:00,89.2,80.7,30.09,SW,214,6.3,9.4,76,0.00,,---,0.00,VWS V14.01,2013-07-04 18:00:00,
2013-07-04 14:05:00,89.2,80.7,30.09,SW,221,5.4,8.9,76,0.00,,---,0.00,VWS V14.01,2013-07-04 18:05:00,
2013-07-04 14:10:00,89.2,80.7,30.09,SW,216,2.7,6.3,76,0.00,,---,0.00,VWS V14.01,2013-07-04 18:10:00,
2013-07-04 14:15:00,89.2,80.7,30.09,SW,216,0.4,4.0,76,0.00,,---,0.00,VWS V14.01,2013-07-04 18:15:00,
2013-07-04 14:20:00,89.2,80.7,30.09,SSW,204,10.3,14.3,76,0.00,,---,0.00,VWS V14.01,2013-07-04 18:20:00,
2013-07-04 14:25:00,89.2,80.7,30.09,SE,138,5.8,6.7,76,0.00,,---,0.00,VWS V14.01,2013-07-04 18:25:00,
2013-07-04 14:30:00,89.2,80.7,30.09,South,169,4.0,8.5,76,0.00,,---,0.00,VWS V14.01,2013-07-04 18:30:00,
2013-07-04 14:35:00,89.2,80.7,30.09,South,187,10.7,13.9,76,0.00,,---,0.00,VWS V14.01,2013-07-04 18:35:00,
2013-07-04 14:40:00,89.2,80.7,30.09,South,180,0.4,7.6,76,0.00,,---,0.00,VWS V14.01,2013-07-04 18:40:00,
2013-07-04 14:45:00,89.2,80.7,30.09,SSW,205,7.2,7.6,76,0.00,,---,0.00,VWS V14.01,2013-07-04 18:45:00,
2013-07-04 14:50:00,89.2,80.7,30.09,SSW,202,7.6,12.5,76,0.00,,---,0.00,VWS V14.01,2013-07-04 18:50:00,
2013-07-04 14:55:00,89.2,80.7,30.09,North,350,6.3,10.7,76,0.00,,---,0.00,VWS V14.01,2013-07-04 18:55:00,
2013-07-04 15:00:00,89.2,80.7,30.09,NW,315,6.7,13.0,76,0.00,,---,0.00,VWS V14.01,2013-07-04 19:00:00,
2013-07-04 15:05:00,89.2,80.7,30.09,North,359,8.1,13.9,76,0.00,,---,0.00,VWS V14.01,2013-07-04 19:05:00,
2013-07-04 15:10:00,89.2,80.7,30.09,SW,216,2.7,6.3,76,0.00,,---,0.00,VWS V14.01,2013-07-04 19:10:00,
2013-07-04 15:15:00,89.2,80.7,30.09,NE,36,8.5,12.1,76,0.00,,---,0.00,VWS V14.01,2013-07-04 19:15:00,
2013-07-04 15:20:00,89.2,80.7,30.09,NNE,14,6.3,14.3,76,0.00,,---,0.00,VWS V14.01,2013-07-04 19:20:00,
2013-07-04 15:25:00,89.2,80.7,30.09,SE,138,5.8,6.7,76,0.00,,---,0.00,VWS V14.01,2013-07-04 19:25:00,
2013-07-04 15:30:00,89.2,80.7,30.09,NNE,32,8.9,10.7,76,0.00,,---,0.00,VWS V14.01,2013-07-04 19:30:00,
2013-07-04 15:35:00,89.2,80.7,30.09,North,11,5.4,9.8,76,0.00,,---,0.00,VWS V14.01,2013-07-04 19:35:00,
2013-07-04 15:40:00,89.2,80.7,30.09,South,180,0.4,7.6,76,0.00,,---,0.00,VWS V14.01,2013-07-04 19:40:00,
2013-07-04 15:45:00,89.2,80.7,30.09,NE,45,2.7,10.7,76,0.00,,---,0.00,VWS V14.01,2013-07-04 19:45:00,
2013-07-04 15:50:00,89.2,80.7,30.09,NE,49,5.8,10.7,76,0.00,,---,0.00,VWS V14.01,2013-07-04 19:50:00,
2013-07-04 15:55:00,89.2,80.7,30.09,NNE,29,4.9,9.4,76,0.00,,---,0.00,VWS V14.01,2013-07-04 19:55:00,
2013-07-04 16:00:00,89.2,80.7,30.09,NW,315,6.7,13.0,76,0.00,,---,0.00,VWS V14.01,2013-07-04 20:00:00,
2013-07-04 16:05:00,89.2,80.7,30.06,NE,47,6.3,8.1,76,0.00,,---,0.00,VWS V14.01,2013-07-04 20:05:00,
2013-07-04 16:10:00,89.2,80.7,30.06,NNE,18,4.9,9.4,76,0.00,,---,0.00,VWS V14.01,2013-07-04 20:10:00,
2013-07-04 16:15:00,89.2,80.7,30.09,NE,36,8.5,12.1,76,0.00,,---,0.00,VWS V14.01,2013-07-04 20:15:00,
2013-07-04 16:20:00,89.2,80.7,30.09,NNE,14,6.3,14.3,76,0.00,,---,0.00,VWS V14.01,2013-07-04 20:20:00,
2013-07-04 16:25:00,89.2,80.7,30.06,ENE,59,4.9,6.7,76,0.00,,---,0.00,VWS V14.01,2013-07-04 20:25:00,
2013-07-04 16:30:00,89.2,80.7,30.09,NNE,32,8.9,10.7,76,0.00,,---,0.00,VWS V14.01,2013-07-04 20:30:00,
2013-07-04 16:35:00,89.2,80.7,30.09,North,11,5.4,9.8,76,0.00,,---,0.00,VWS V14.01,2013-07-04 20:35:00,
2013-07-04 16:40:00,89.2,80.7,30.09,NNE,19,8.9,10.7,76,0.00,,---,0.00,VWS V14.01,2013-07-04 20:40:00,
2013-07-04 16:45:00,89.2,80.7,30.09,NE,45,2.7,10.7,76,0.00,,---,0.00,VWS V14.01,2013-07-04 20:45:00,
2013-07-04 16:50:00,89.2,80.7,30.09,NE,49,5.8,10.7,76,0.00,,---,0.00,VWS V14.01,2013-07-04 20:50:00,
2013-07-04 16:55:00,89.2,80.7,30.06,North,360,3.6,7.2,76,0.00,,---,0.00,VWS V14.01,2013-07-04 20:55:00,
2013-07-04 17:00:00,89.2,80.7,30.06,ENE,57,4.9,6.7,76,0.00,,---,0.00,VWS V14.01,2013-07-04 21:00:00,
2013-07-04 17:05:00,89.2,80.7,30.06,NE,52,0.0,4.9,76,0.00,,---,0.00,VWS V14.01,2013-07-04 21:05:00,
2013-07-04 17:10:00,89.2,80.7,30.06,NNE,18,4.9,9.4,76,0.00,,---,0.00,VWS V14.01,2013-07-04 21:10:00,
2013-07-04 17:15:00,89.2,80.7,30.06,NNE,18,6.3,8.9,76,0.00,,---,0.00,VWS V14.01,2013-07-04 21:15:00,
2013-07-04 17:20:00,89.2,80.7,30.06,North,356,4.0,8.1,76,0.00,,---,0.00,VWS V14.01,2013-07-04 21:20:00,
2013-07-04 17:25:00,89.2,80.7,30.06,North,350,2.7,5.4,76,0.00,,---,0.00,VWS V14.01,2013-07-04 21:25:00,
2013-07-04 17:30:00,89.2,80.7,30.06,NNW,345,8.5,9.8,76,0.00,,---,0.00,VWS V14.01,2013-07-04 21:30:00,
2013-07-04 17:35:00,89.2,80.7,30.06,NW,314,2.2,9.4,76,0.00,,---,0.00,VWS V14.01,2013-07-04 21:35:00,
2013-07-04 17:40:00,89.2,80.7,30.06,NNW,347,5.4,8.1,76,0.00,,---,0.00,VWS V14.01,2013-07-04 21:40:00,
2013-07-04 17:45:00,89.2,80.7,30.06,NNE,18,5.4,8.1,76,0.00,,---,0.00,VWS V14.01,2013-07-04 21:45:00,
2013-07-04 17:50:00,89.2,80.7,30.06,North,359,2.7,8.9,76,0.00,,---,0.00,VWS V14.01,2013-07-04 21:50:00,
2013-07-04 17:55:00,89.2,80.7,30.06,NW,318,0.4,8.5,76,0.00,,---,0.00,VWS V14.01,2013-07-04 21:55:00,
2013-07-04 18:00:00,89.2,80.7,30.06,ENE,57,4.9,6.7,76,0.00,,---,0.00,VWS V14.01,2013-07-04 22:00:00,
2013-07-04 18:05:00,89.2,80.7,30.06,North,354,2.7,12.5,76,0.00,,---,0.00,VWS V14.01,2013-07-04 22:05:00,
2013-07-04 18:10:00,89.2,80.7,30.06,NW,316,3.1,9.4,76,0.00,,---,0.00,VWS V14.01,2013-07-04 22:10:00,
2013-07-04 18:15:00,89.2,80.7,30.06,North,359,5.4,8.1,76,0.00,,---,0.00,VWS V14.01,2013-07-04 22:15:00,
2013-07-04 18:20:00,89.2,80.7,30.06,North,356,4.0,8.1,76,0.00,,---,0.00,VWS V14.01,2013-07-04 22:20:00,
2013-07-04 18:25:00,89.2,80.7,30.06,WNW,283,2.7,9.8,76,0.00,,---,0.00,VWS V14.01,2013-07-04 22:25:00,
2013-07-04 18:30:00,89.2,80.7,30.06,WNW,300,9.4,13.0,76,0.00,,---,0.00,VWS V14.01,2013-07-04 22:30:00,
2013-07-04 18:35:00,89.2,80.7,30.06,NW,314,2.2,9.4,76,0.00,,---,0.00,VWS V14.01,2013-07-04 22:35:00,
2013-07-04 18:40:00,89.2,80.7,30.06,NW,325,3.6,8.9,76,0.00,,---,0.00,VWS V14.01,2013-07-04 22:40:00,
2013-07-04 18:45:00,89.2,80.7,30.06,NW,322,4.0,6.3,76,0.00,,---,0.00,VWS V14.01,2013-07-04 22:45:00,
2013-07-04 18:50:00,89.2,80.7,30.06,NW,319,3.1,4.9,76,0.00,,---,0.00,VWS V14.01,2013-07-04 22:50:00,
2013-07-04 18:55:00,89.2,80.7,30.06,NW,318,0.4,8.5,76,0.00,,---,0.00,VWS V14.01,2013-07-04 22:55:00,
2013-07-04 19:00:00,89.2,80.7,30.06,NW,312,4.0,5.8,76,0.00,,---,0.00,VWS V14.01,2013-07-04 23:00:00,
2013-07-04 19:05:00,89.2,80.7,30.06,NW,325,5.4,6.3,76,0.00,,---,0.00,VWS V14.01,2013-07-04 23:05:00,
2013-07-04 19:10:00,89.2,80.7,30.06,NW,314,0.0,5.4,76,0.00,,---,0.00,VWS V14.01,2013-07-04 23:10:00,
2013-07-04 19:15:00,89.2,80.7,30.06,North,359,5.4,8.1,76,0.00,,---,0.00,VWS V14.01,2013-07-04 23:15:00,
2013-07-04 19:20:00,89.2,80.7,30.06,NW,312,0.0,0.0,76,0.00,,---,0.00,VWS V14.01,2013-07-04 23:20:00,
2013-07-04 19:25:00,89.2,80.7,30.06,NW,314,0.0,0.0,76,0.00,,---,0.00,VWS V14.01,2013-07-04 23:25:00,
2013-07-04 19:30:00,89.2,80.7,30.06,NW,314,0.0,0.0,76,0.00,,---,0.00,VWS V14.01,2013-07-04 23:30:00,
2013-07-04 19:35:00,89.2,80.7,30.06,NW,316,5.4,11.2,76,0.00,,---,0.00,VWS V14.01,2013-07-04 23:35:00,
2013-07-04 19:40:00,89.2,80.7,30.06,NW,311,0.0,0.0,76,0.00,,---,0.00,VWS V14.01,2013-07-04 23:40:00,
2013-07-04 19:45:00,89.2,80.7,30.06,NW,312,0.0,0.0,76,0.00,,---,0.00,VWS V14.01,2013-07-04 23:45:00,
2013-07-04 19:50:00,89.2,80.7,30.06,NW,319,3.1,4.9,76,0.00,,---,0.00,VWS V14.01,2013-07-04 23:50:00,
2013-07-04 19:55:00,89.2,80.7,30.06,NW,312,0.0,0.0,76,0.00,,---,0.00,VWS V14.01,2013-07-04 23:55:00,
2013-07-04 20:00:00,89.2,80.7,30.06,NW,309,3.6,4.9,76,0.00,,---,0.00,VWS V14.01,2013-07-05 00:00:00,
2013-07-04 20:05:00,89.2,80.7,30.06,NW,304,0.0,4.5,76,0.00,,---,0.00,VWS V14.01,2013-07-05 00:05:00,
2013-07-04 20:10:00,89.2,80.7,30.06,NW,314,0.0,5.4,76,0.00,,---,0.00,VWS V14.01,2013-07-05 00:10:00,
2013-07-04 20:15:00,89.2,80.7,30.06,NW,304,0.0,1.3,76,0.00,,---,0.00,VWS V14.01,2013-07-05 00:15:00,
2013-07-04 20:20:00,89.2,80.7,30.06,NW,304,0.0,0.0,76,0.00,,---,0.00,VWS V14.01,2013-07-05 00:20:00,
2013-07-04 20:25:00,89.2,80.7,30.06,NW,314,0.0,0.0,76,0.00,,---,0.00,VWS V14.01,2013-07-05 00:25:00,
2013-07-04 20:30:00,89.2,80.7,30.06,NW,304,0.0,0.0,76,0.00,,---,0.00,VWS V14.01,2013-07-05 00:30:00,
2013-07-04 20:35:00,89.2,80.7,30.06,NW,304,0.0,0.0,76,0.00,,---,0.00,VWS V14.01,2013-07-05 00:35:00,
2013-07-04 20:40:00,89.2,80.7,30.06,NW,304,0.0,0.0,76,0.00,,---,0.00,VWS V14.01,2013-07-05 00:40:00,
2013-07-04 20:45:00,89.2,80.7,30.06,NW,304,2.7,3.1,76,0.00,,---,0.00,VWS V14.01,2013-07-05 00:45:00,
2013-07-04 20:50:00,89.2,80.7,30.06,NW,312,0.0,3.6,76,0.00,,---,0.00,VWS V14.01,2013-07-05 00:50:00,
2013-07-04 20:55:00,89.2,80.7,30.06,NW,304,0.9,3.1,76,0.00,,---,0.00,VWS V14.01,2013-07-05 00:55:00,
2013-07-04 21:00:00,89.2,80.7,30.06,NW,304,2.2,2.7,76,0.00,,---,0.00,VWS V14.01,2013-07-05 01:00:00,
2013-07-04 21:05:00,89.2,80.7,30.06,NW,304,0.0,2.7,76,0.00,,---,0.00,VWS V14.01,2013-07-05 01:05:00,
2013-07-04 21:10:00,89.2,80.7,30.06,NW,304,1.3,2.2,76,0.00,,---,0.00,VWS V14.01,2013-07-05 01:10:00,
2013-07-04 21:15:00,89.2,80.7,30.06,NW,304,0.0,0.0,76,0.00,,---,0.00,VWS V14.01,2013-07-05 01:15:00,
2013-07-04 21:20:00,89.2,80.7,30.06,NW,304,0.0,0.4,76,0.00,,---,0.00,VWS V14.01,2013-07-05 01:20:00,
2013-07-04 21:25:00,89.2,80.7,30.06,NW,304,0.0,0.4,76,0.00,,---,0.00,VWS V14.01,2013-07-05 01:25:00,
2013-07-04 21:30:00,89.2,80.7,30.06,WNW,302,4.0,4.0,76,0.00,,---,0.00,VWS V14.01,2013-07-05 01:30:00,
2013-07-04 21:35:00,89.2,80.7,30.06,WNW,298,2.7,4.5,76,0.00,,---,0.00,VWS V14.01,2013-07-05 01:35:00,
2013-07-04 21:40:00,89.2,80.7,30.06,WNW,298,1.3,4.0,76,0.00,,---,0.00,VWS V14.01,2013-07-05 01:40:00,
2013-07-04 21:45:00,89.2,80.7,30.06,NW,304,2.7,3.1,76,0.00,,---,0.00,VWS V14.01,2013-07-05 01:45:00,
2013-07-04 21:50:00,89.2,80.7,30.09,WNW,298,0.0,2.2,76,0.00,,---,0.00,VWS V14.01,2013-07-05 01:50:00,
2013-07-04 21:55:00,89.2,80.7,30.09,WNW,298,0.0,0.4,76,0.00,,---,0.00,VWS V14.01,2013-07-05 01:55:00,
2013-07-04 22:00:00,89.2,80.7,30.09,WNW,292,4.0,4.0,76,0.00,,---,0.00,VWS V14.01,2013-07-05 02:00:00,
2013-07-04 22:05:00,89.2,80.7,30.06,NW,304,0.0,2.7,76,0.00,,---,0.00,VWS V14.01,2013-07-05 02:05:00,
2013-07-04 22:10:00,89.2,80.7,30.09,SSW,212,3.6,4.9,76,0.00,,---,0.00,VWS V14.01,2013-07-05 02:10:00,
2013-07-04 22:15:00,89.2,80.7,30.09,SW,214,4.0,4.5,76,0.00,,---,0.00,VWS V14.01,2013-07-05 02:15:00,
2013-07-04 22:20:00,89.2,80.7,30.06,NW,304,0.0,0.4,76,0.00,,---,0.00,VWS V14.01,2013-07-05 02:20:00,
2013-07-04 22:25:00,89.2,80.7,30.09,SSW,211,4.5,5.8,76,0.00,,---,0.00,VWS V14.01,2013-07-05 02:25:00,
2013-07-04 22:30:00,89.2,80.7,30.09,SSW,211,2.2,4.9,76,0.00,,---,0.00,VWS V14.01,2013-07-05 02:30:00,
2013-07-04 22:35:00,89.2,80.7,30.09,SSW,211,0.0,2.2,76,0.00,,---,0.00,VWS V14.01,2013-07-05 02:35:00,
2013-07-04 22:40:00,89.2,80.7,30.06,WNW,298,1.3,4.0,76,0.00,,---,0.00,VWS V14.01,2013-07-05 02:40:00,
2013-07-04 22:45:00,89.2,80.7,30.09,SSW,211,0.0,1.8,76,0.00,,---,0.00,VWS V14.01,2013-07-05 02:45:00,
2013-07-04 22:50:00,89.2,80.7,30.09,SSW,211,0.0,0.0,76,0.00,,---,0.00,VWS V14.01,2013-07-05 02:50:00,
2013-07-04 22:55:00,89.2,80.7,30.09,WNW,298,0.0,0.4,76,0.00,,---,0.00,VWS V14.01,2013-07-05 02:55:00,
2013-07-04 23:00:00,89.2,80.7,30.09,SSW,211,0.0,0.0,76,0.00,,---,0.00,VWS V14.01,2013-07-05 03:00:00,
2013-07-04 23:05:00,89.2,80.7,30.09,SSW,209,0.9,3.6,76,0.00,,---,0.00,VWS V14.01,2013-07-05 03:05:00,
2013-07-04 23:10:00,89.2,80.7,30.09,SSW,211,1.3,3.6,76,0.00,,---,0.00,VWS V14.01,2013-07-05 03:10:00,
2013-07-04 23:15:00,89.2,80.7,30.09,SW,214,4.0,4.5,76,0.00,,---,0.00,VWS V14.01,2013-07-05 03:15:00,
2013-07-04 23:20:00,89.2,80.7,30.09,SSW,211,0.0,0.0,76,0.00,,---,0.00,VWS V14.01,2013-07-05 03:20:00,
2013-07-04 23:25:00,89.2,80.7,30.09,SSW,211,1.8,2.7,76,0.00,,---,0.00,VWS V14.01,2013-07-05 03:25:00,
2013-07-04 23:30:00,89.2,80.7,30.09,SSW,211,2.2,4.9,76,0.00,,---,0.00,VWS V14.01,2013-07-05 03:30:00,
2013-07-04 23:35:00,89.2,80.7,30.09,SSW,211,3.6,4.0,76,0.00,,---,0.00,VWS V14.01,2013-07-05 03:35:00,
2013-07-04 23:40:00,89.2,80.7,30.09,SSW,211,4.0,4.0,76,0.00,,---,0.00,VWS V14.01,2013-07-05 03:40:00,
2013-07-04 23:45:00,89.2,80.7,30.09,SSW,211,0.0,1.8,76,0.00,,---,0.00,VWS V14.01,2013-07-05 03:45:00,
2013-07-04 23:50:00,89.2,80.7,30.09,SSW,211,3.6,4.0,76,0.00,,---,0.00,VWS V14.01,2013-07-05 03:50:00,
2013-07-04 23:55:00,89.2,80.7,30.09,SSW,211,2.7,3.6,76,0.00,,---,0.00,VWS V14.01,2013-07-05 03:55:00,